createdAt,value
2017-05-28T09:57:04.828Z,92.65
2017-05-28T09:58:13.727Z,93.18
2017-05-28T09:59:22.657Z,93.85
2017-05-28T10:00:31.882Z,94.14
2017-05-28T10:01:41.156Z,93.56
2017-05-28T10:02:50.378Z,92.89
2017-05-28T10:04:00.259Z,92.74
2017-05-28T10:05:09.155Z,93.37
2017-05-28T10:06:18.379Z,92.5
2017-05-28T10:07:27.488Z,92.69
2017-05-28T10:08:36.532Z,92.16
2017-05-28T10:09:46.085Z,92.11
2017-05-28T10:10:55.634Z,92.31
2017-05-28T10:12:04.858Z,92.11
2017-05-28T10:13:14.135Z,92.5
2017-05-28T10:14:23.687Z,92.5
2017-05-28T10:15:33.560Z,92.21
2017-05-28T10:16:42.466Z,92.02
2017-05-28T10:17:51.382Z,89.89
2017-05-28T10:19:01.307Z,89.61
2017-05-28T10:20:10.533Z,90.28
2017-05-28T10:21:19.764Z,90.47
2017-05-28T10:22:28.667Z,86.61
2017-05-28T10:23:37.900Z,86.36
2017-05-28T10:24:47.884Z,84.82
2017-05-28T10:25:57.113Z,85.49
2017-05-28T10:27:06.986Z,85.01
2017-05-28T10:28:15.883Z,85.01
2017-05-28T10:29:24.788Z,83.95
2017-05-28T10:30:34.169Z,84.24
2017-05-28T10:31:43.718Z,83.27
2017-05-28T10:32:53.161Z,85.05
2017-05-28T10:34:02.719Z,84.19
2017-05-28T10:35:11.958Z,83.22
2017-05-28T10:36:21.069Z,81.96
2017-05-28T10:37:29.977Z,82.54
2017-05-28T10:38:39.536Z,83.41
2017-05-28T10:39:48.776Z,83.7
2017-05-28T10:40:58.016Z,82.39
2017-05-28T10:42:06.973Z,83.74
2017-05-28T10:43:15.936Z,84.52
2017-05-28T10:44:24.846Z,85.39
2017-05-28T10:45:34.083Z,83.26
2017-05-28T10:46:43.321Z,79.43
2017-05-28T10:47:52.542Z,78.94
2017-05-28T10:49:01.781Z,80.01
2017-05-28T10:50:11.343Z,79.33
2017-05-28T10:51:20.246Z,80.4
2017-05-28T10:52:29.142Z,79.72
2017-05-28T10:53:38.370Z,78.36
2017-05-28T10:54:47.922Z,75.79
2017-05-28T10:55:56.826Z,76.37
2017-05-28T10:57:06.154Z,76.56
2017-05-28T10:58:15.061Z,76.18
2017-05-28T10:59:24.120Z,75.02
2017-05-28T11:00:33.674Z,75.44
2017-05-28T11:01:42.578Z,74.38
2017-05-28T11:02:51.482Z,73.79
2017-05-28T11:04:01.060Z,73.31
2017-05-28T11:05:10.065Z,71.95
2017-05-28T11:06:18.966Z,71.95
2017-05-28T11:07:28.192Z,73.89
2017-05-28T11:08:37.417Z,72.92
2017-05-28T11:09:46.645Z,70.63
2017-05-28T11:10:55.546Z,69.47
2017-05-28T11:12:04.773Z,69.18
2017-05-28T11:13:13.676Z,70.44
2017-05-28T11:14:23.223Z,67.63
2017-05-28T11:15:32.123Z,66.89
2017-05-28T11:16:41.500Z,66.47
2017-05-28T11:17:50.396Z,67.14
2017-05-28T11:18:59.956Z,67.53
2017-05-28T11:20:09.179Z,67.14
2017-05-28T11:21:18.409Z,66.99
2017-05-28T11:22:27.741Z,66.69
2017-05-28T11:23:36.640Z,65.43
2017-05-28T11:24:45.938Z,65.05
2017-05-28T11:25:55.167Z,65.34
2017-05-28T11:27:04.719Z,65.56
2017-05-28T11:28:14.204Z,65.66
2017-05-28T11:29:23.755Z,66.47
2017-05-28T11:30:32.984Z,64.56
2017-05-28T11:31:42.210Z,63.95
2017-05-28T11:32:51.764Z,64.62
2017-05-28T11:34:01.140Z,63.98
2017-05-28T11:35:10.428Z,62.91
2017-05-28T11:36:19.988Z,62.04
2017-05-28T11:37:29.223Z,62.71
2017-05-28T11:38:38.451Z,61.58
2017-05-28T11:39:47.417Z,61.09
2017-05-28T11:40:56.382Z,60.9
2017-05-28T11:42:05.345Z,60.25
2017-05-28T11:43:14.283Z,60.51
2017-05-28T11:44:23.515Z,60.61
2017-05-28T11:45:33.296Z,59.76
2017-05-28T11:46:42.591Z,58.89
2017-05-28T11:47:51.502Z,57.72
2017-05-28T11:49:00.754Z,55.29
2017-05-28T11:50:09.699Z,54.54
2017-05-28T11:51:19.332Z,56.39
2017-05-28T11:52:28.613Z,54.74
2017-05-28T11:53:37.869Z,55.22
2017-05-28T11:54:48.084Z,56.61
2017-05-28T11:55:56.991Z,55.64
2017-05-28T11:57:06.002Z,54.96
2017-05-28T11:58:15.238Z,54.6
2017-05-28T11:59:24.467Z,53.23
2017-05-28T12:00:33.453Z,52.94
2017-05-28T12:01:42.412Z,53.16
2017-05-28T12:02:51.469Z,52.28
2017-05-28T12:04:00.709Z,51.7
2017-05-28T12:05:09.616Z,51.34
2017-05-28T12:06:18.530Z,50.65
2017-05-28T12:07:27.438Z,49.97
2017-05-28T12:08:36.444Z,50.29
2017-05-28T12:09:46.010Z,48.63
2017-05-28T12:10:55.243Z,47.75
2017-05-28T12:12:04.503Z,45.51
2017-05-28T12:13:13.743Z,45.42
2017-05-28T12:14:22.810Z,43.68
2017-05-28T12:15:32.046Z,42.32
2017-05-28T12:16:40.957Z,40.66
2017-05-28T12:17:49.866Z,41.54
2017-05-28T12:18:59.103Z,42.05
2017-05-28T12:20:08.411Z,43.39
2017-05-28T12:21:17.330Z,43.1
2017-05-28T12:22:26.242Z,43.88
2017-05-28T12:23:35.157Z,43.61
2017-05-28T12:24:44.404Z,44.09
2017-05-28T12:25:54.414Z,44.48
2017-05-28T12:27:03.857Z,45.56
2017-05-28T12:28:12.878Z,46.24
2017-05-28T12:29:22.116Z,48.19
2017-05-28T12:30:31.685Z,48.27
2017-05-28T12:31:41.075Z,48.07
2017-05-28T12:32:49.991Z,47.88
2017-05-28T12:33:59.562Z,46.41
2017-05-28T12:35:08.807Z,46.22
2017-05-28T12:36:18.049Z,46.83
2017-05-28T12:37:27.115Z,45.46
2017-05-28T12:38:36.025Z,43.41
2017-05-28T12:39:45.268Z,43.22
2017-05-28T12:40:54.832Z,44.19
2017-05-28T12:42:03.761Z,42.93
2017-05-28T12:43:12.672Z,43.99
2017-05-28T12:44:21.914Z,43.61
2017-05-28T12:45:31.801Z,44.17
2017-05-28T12:46:41.046Z,44.76
2017-05-28T12:47:50.288Z,45.36
2017-05-28T12:48:59.358Z,44.48
2017-05-28T12:50:08.276Z,43.53
2017-05-28T12:51:17.188Z,42.65
2017-05-28T12:52:26.478Z,42.93
2017-05-28T12:53:35.394Z,40.97
2017-05-28T12:54:44.319Z,40.99
2017-05-28T12:55:53.562Z,41.48
2017-05-28T12:57:03.142Z,41.48
2017-05-28T12:58:12.385Z,41.5
2017-05-28T12:59:21.307Z,40.23
2017-05-28T13:00:31.198Z,39.67
2017-05-28T13:01:40.768Z,40.25
2017-05-28T13:02:50.012Z,38.59
2017-05-28T13:03:59.575Z,38.1
2017-05-28T13:05:08.490Z,38.2
2017-05-28T13:06:17.511Z,37.91
2017-05-28T13:07:26.749Z,37.32
2017-05-28T13:08:35.736Z,38.2
2017-05-28T13:09:44.979Z,37.91
2017-05-28T13:10:54.224Z,38.28
2017-05-28T13:12:03.140Z,37.6
2017-05-28T13:13:12.386Z,36.54
2017-05-28T13:14:21.631Z,37.93
2017-05-28T13:15:30.877Z,36.75
2017-05-28T13:16:39.792Z,36.26
2017-05-28T13:17:48.861Z,36.36
2017-05-28T13:18:58.761Z,36.67
2017-05-28T13:20:08.003Z,35.5
2017-05-28T13:21:16.921Z,36.57
2017-05-28T13:22:25.841Z,35.4
2017-05-28T13:23:34.906Z,35.69
2017-05-28T13:24:44.799Z,37.04
2017-05-28T13:25:53.720Z,37.75
2017-05-28T13:27:03.291Z,36.75
2017-05-28T13:28:12.533Z,36.96
2017-05-28T13:29:21.599Z,36.18
2017-05-28T13:30:30.843Z,36.18
2017-05-28T13:31:40.096Z,35.4
2017-05-28T13:32:49.337Z,36.1
2017-05-28T13:33:58.984Z,35.81
2017-05-28T13:35:08.498Z,35.42
2017-05-28T13:36:17.741Z,35.73
2017-05-28T13:37:26.654Z,36.98
2017-05-28T13:38:35.579Z,36.79
2017-05-28T13:39:44.844Z,38.63
2017-05-28T13:40:54.236Z,39.39
2017-05-28T13:42:03.513Z,37.54
2017-05-28T13:43:13.085Z,36.08
2017-05-28T13:44:22.328Z,36.1
2017-05-28T13:45:31.943Z,36.49
2017-05-28T13:46:41.023Z,36.2
2017-05-28T13:47:50.308Z,36.59
2017-05-28T13:49:00.020Z,35.32
2017-05-28T13:50:09.389Z,35.52
2017-05-28T13:51:18.735Z,35.22
2017-05-28T13:52:28.438Z,35.44
2017-05-28T13:53:37.551Z,35.16
2017-05-28T13:54:46.610Z,35.25
2017-05-28T13:55:56.281Z,35.14
2017-05-28T13:57:05.623Z,35.52
2017-05-28T13:59:53.719Z,35.45
2017-05-28T14:01:03.320Z,35.16
2017-05-28T14:02:12.629Z,35.16
2017-05-28T14:03:22.487Z,34.18
2017-05-28T14:04:31.674Z,34.88
2017-05-28T14:05:40.873Z,34.86
2017-05-28T14:06:50.282Z,34.98
2017-05-28T14:07:59.828Z,35.76
2017-05-28T14:09:09.687Z,34.59
2017-05-28T14:10:19.074Z,34.3
2017-05-28T14:11:28.053Z,35.08
2017-05-28T14:12:37.182Z,34.45
2017-05-28T14:13:47.891Z,34.77
2017-05-28T14:14:57.985Z,34.2
2017-05-28T14:16:07.236Z,33.48
2017-05-28T14:17:16.159Z,33.69
2017-05-28T14:18:25.736Z,33.5
2017-05-28T14:19:34.988Z,34.1
2017-05-28T14:20:44.385Z,34.1
2017-05-28T14:21:53.634Z,33.92
2017-05-28T14:23:02.554Z,33.31
2017-05-28T14:24:12.449Z,33.61
2017-05-28T14:25:22.055Z,33.51
2017-05-28T14:26:30.967Z,32.61
2017-05-28T14:27:40.210Z,32.12
2017-05-28T14:28:49.129Z,32.92
2017-05-28T14:29:58.374Z,33.12
2017-05-28T14:31:07.616Z,32.53
2017-05-28T14:32:17.336Z,32.23
2017-05-28T14:33:26.258Z,32.92
2017-05-28T14:34:35.821Z,32.22
2017-05-28T14:35:45.062Z,31.74
2017-05-28T14:36:54.302Z,31.93
2017-05-28T14:38:03.625Z,31.84
2017-05-28T14:39:13.191Z,31.94
2017-05-28T14:40:22.437Z,31.94
2017-05-28T14:41:31.680Z,32.06
2017-05-28T14:42:40.598Z,31.17
2017-05-28T14:43:49.842Z,31.07
2017-05-28T14:44:58.763Z,31.09
2017-05-28T14:46:08.018Z,30.12
2017-05-28T14:47:17.258Z,30.5
2017-05-28T14:48:26.179Z,30.98
2017-05-28T14:49:35.901Z,30.49
2017-05-28T14:50:44.830Z,30.42
2017-05-28T14:51:53.752Z,30.6
2017-05-28T14:53:02.670Z,29.53
2017-05-28T14:54:11.917Z,29.34
2017-05-28T14:55:20.990Z,29.93
2017-05-28T14:56:29.909Z,30.62
2017-05-28T14:57:39.157Z,31.47
2017-05-28T14:58:48.735Z,31.27
2017-05-28T14:59:57.980Z,31.37
2017-05-28T15:01:07.529Z,32.23
2017-05-28T15:02:16.486Z,32.04
2017-05-28T15:03:25.505Z,31.65
2017-05-28T15:04:35.412Z,31.34
2017-05-28T15:05:44.706Z,30.87
2017-05-28T15:06:53.824Z,31.17
2017-05-28T15:08:02.738Z,31.57
2017-05-28T15:09:12.312Z,31.09
2017-05-28T15:10:21.234Z,31.37
2017-05-28T15:11:30.162Z,30.8
2017-05-28T15:12:39.552Z,31.76
2017-05-28T15:13:48.794Z,31.76
2017-05-28T15:14:58.687Z,31.07
2017-05-28T15:16:07.614Z,30.11
2017-05-28T15:17:17.103Z,30.5
2017-05-28T15:18:26.894Z,30.02
2017-05-28T15:19:35.832Z,31.38
2017-05-28T15:20:45.403Z,30.78
2017-05-28T15:21:54.379Z,30.21
2017-05-28T15:23:03.622Z,30.98
2017-05-28T15:24:12.544Z,30.98
2017-05-28T15:25:21.470Z,30.39
2017-05-28T15:26:31.035Z,30.6
2017-05-28T15:27:40.610Z,31.67
2017-05-28T15:28:50.521Z,30.78
2017-05-28T15:29:59.742Z,29.9
2017-05-28T15:31:08.997Z,30.4
2017-05-28T15:32:18.563Z,30.52
2017-05-28T15:33:27.812Z,30.4
2017-05-28T15:34:36.755Z,30.3
2017-05-28T15:35:46.278Z,29.6
2017-05-28T15:36:56.189Z,29.41
2017-05-28T15:38:05.757Z,29.21
2017-05-28T15:39:14.723Z,28.43
2017-05-28T15:40:23.972Z,29.13
2017-05-28T15:41:32.884Z,30.1
2017-05-28T15:42:42.134Z,30.39
2017-05-28T15:43:51.378Z,29.13
2017-05-28T15:45:00.633Z,29.05
2017-05-28T15:46:09.552Z,28.83
2017-05-28T15:47:18.622Z,28.93
2017-05-28T15:48:27.864Z,28.92
2017-05-28T15:49:36.785Z,29.5
2017-05-28T15:50:46.030Z,29.31
2017-05-28T15:51:54.946Z,29.8
2017-05-28T15:53:03.921Z,29.98
2017-05-28T15:54:12.839Z,30.7
2017-05-28T15:55:22.465Z,30.49
2017-05-28T15:56:32.032Z,29.33
2017-05-28T15:57:41.277Z,29.34
2017-05-28T15:58:50.674Z,30.7
2017-05-28T15:59:59.917Z,30.58
2017-05-28T16:01:09.162Z,30.19
2017-05-28T16:02:18.406Z,29.52
2017-05-28T16:03:27.330Z,30.4
2017-05-28T16:04:36.953Z,30.29
2017-05-28T16:05:46.529Z,30.1
2017-05-28T16:06:55.777Z,30
2017-05-28T16:08:04.692Z,30.29
2017-05-28T16:09:13.614Z,29.8
2017-05-28T16:10:22.691Z,29.82
2017-05-28T16:11:31.933Z,30.11
2017-05-28T16:12:40.856Z,30.98
2017-05-28T16:13:50.103Z,31.73
2017-05-28T16:14:59.358Z,31.54
2017-05-28T16:16:09.022Z,31.83
2017-05-28T16:17:17.942Z,31.74
2017-05-28T16:18:27.180Z,31.83
2017-05-28T16:19:36.746Z,32.4
2017-05-28T16:20:45.983Z,32.39
2017-05-28T16:21:55.055Z,32.89
2017-05-28T16:23:03.977Z,32.09
2017-05-28T16:24:12.893Z,32.4
2017-05-28T16:25:22.139Z,32.2
2017-05-28T16:26:31.376Z,33.18
2017-05-28T16:27:40.946Z,34.03
2017-05-28T16:28:50.194Z,34.81
2017-05-28T16:29:59.454Z,34.42
2017-05-28T16:31:08.367Z,33.94
2017-05-28T16:32:17.279Z,32.97
2017-05-28T16:33:26.456Z,32.87
2017-05-28T16:34:35.728Z,32.19
2017-05-28T16:35:45.032Z,33.26
2017-05-28T16:36:54.044Z,32.68
2017-05-28T16:38:02.970Z,32.2
2017-05-28T16:39:12.366Z,33.2
2017-05-28T16:40:21.606Z,33.38
2017-05-28T16:41:30.521Z,33.09
2017-05-28T16:42:39.762Z,33.56
2017-05-28T16:43:49.057Z,34.34
2017-05-28T16:44:58.120Z,34.13
2017-05-28T16:46:07.035Z,34.14
2017-05-28T16:47:16.276Z,35.5
2017-05-28T16:48:25.524Z,35.77
2017-05-28T16:49:35.412Z,34.81
2017-05-28T16:50:44.328Z,35.32
2017-05-28T16:51:54.443Z,37.95
2017-05-28T16:53:03.658Z,36.85
2017-05-28T16:54:12.984Z,39.39
2017-05-28T16:55:21.932Z,40.35
2017-05-28T16:56:30.883Z,41.6
2017-05-28T16:57:40.197Z,42.09
2017-05-28T16:58:49.841Z,41.99
2017-05-28T16:59:59.099Z,42.46
2017-05-28T17:01:08.337Z,42.93
2017-05-28T17:02:17.253Z,43.02
2017-05-28T17:03:26.489Z,42.83
2017-05-28T17:04:35.726Z,43.59
2017-05-28T17:05:44.965Z,43
2017-05-28T17:06:53.873Z,42.51
2017-05-28T17:08:02.785Z,43.98
2017-05-28T17:09:12.032Z,43.39
2017-05-28T17:10:20.947Z,43.37
2017-05-28T17:11:29.855Z,44.54
2017-05-28T17:12:39.148Z,43.76
2017-05-28T17:13:48.727Z,43.57
2017-05-28T17:14:57.637Z,44.15
2017-05-28T17:16:06.875Z,44.54
2017-05-28T17:17:16.452Z,44.52
2017-05-28T17:18:25.688Z,44.71
2017-05-28T17:19:34.607Z,45
2017-05-28T17:20:43.517Z,45.68
2017-05-28T17:21:53.225Z,46.34
2017-05-28T17:23:02.501Z,46.44
2017-05-28T17:24:11.746Z,46.34
2017-05-28T17:25:20.987Z,46.81
2017-05-28T17:26:30.223Z,47.2
2017-05-28T17:27:39.399Z,46.81
2017-05-28T17:28:49.291Z,47.78
2017-05-28T17:29:59.180Z,46.91
2017-05-28T17:31:09.061Z,47.76
2017-05-28T17:32:18.295Z,46.98
2017-05-28T17:33:28.005Z,47.27
2017-05-28T17:34:36.935Z,47.56
2017-05-28T17:35:46.497Z,47.76
2017-05-28T17:36:55.734Z,48.83
2017-05-28T17:38:05.297Z,49.41
2017-05-28T17:39:14.778Z,48.71
2017-05-28T17:40:23.693Z,48.8
2017-05-28T17:41:32.863Z,48.8
2017-05-28T17:42:42.112Z,48.13
2017-05-28T17:43:51.026Z,48.9
2017-05-28T17:45:00.735Z,48.71
2017-05-28T17:46:09.907Z,49.56
2017-05-28T17:47:19.139Z,50.04
2017-05-28T17:48:28.043Z,50.41
2017-05-28T17:49:37.931Z,50.51
2017-05-28T17:50:47.420Z,50.99
2017-05-28T17:51:56.345Z,51.65
2017-05-28T17:53:05.262Z,51.75
2017-05-28T17:54:14.189Z,52.42
2017-05-28T17:55:23.103Z,52.72
2017-05-28T17:56:32.313Z,52.88
2017-05-28T17:57:41.552Z,52.98
2017-05-28T17:58:50.474Z,53.66
2017-05-28T18:00:00.046Z,54.34
2017-05-28T18:01:08.954Z,54.31
2017-05-28T18:02:17.962Z,55.08
2017-05-28T18:03:27.198Z,55.47
2017-05-28T18:04:36.749Z,55.64
2017-05-28T18:05:46.048Z,56.13
2017-05-28T18:06:55.606Z,56.81
2017-05-28T18:08:04.517Z,56.9
2017-05-28T18:09:13.759Z,57.39
2017-05-28T18:10:22.988Z,57.58
2017-05-28T18:11:32.225Z,57.09
2017-05-28T18:12:41.131Z,57.78
2017-05-28T18:13:50.738Z,57.97
2017-05-28T18:15:00.618Z,58.04
2017-05-28T18:16:10.506Z,58.42
2017-05-28T18:17:19.408Z,57.94
2017-05-28T18:18:28.309Z,58.72
2017-05-28T18:19:37.966Z,58.72
2017-05-28T18:20:47.251Z,58.14
2017-05-28T18:21:56.486Z,57.65
2017-05-28T18:23:05.719Z,58.23
2017-05-28T18:24:14.619Z,58.81
2017-05-28T18:25:25.131Z,59.07
2017-05-28T18:26:34.029Z,59.46
2017-05-28T18:27:42.933Z,59.46
2017-05-28T18:28:52.163Z,59.17
2017-05-28T18:30:02.040Z,59.36
2017-05-28T18:31:11.521Z,59.84
2017-05-28T18:32:20.750Z,60.04
2017-05-28T18:33:29.973Z,60.98
2017-05-28T18:34:39.213Z,60.59
2017-05-28T18:35:49.091Z,60.4
2017-05-28T18:36:58.665Z,60.59
2017-05-28T18:38:07.570Z,60.59
2017-05-28T18:39:16.796Z,60.59
2017-05-28T18:40:26.026Z,60.88
2017-05-28T18:41:34.929Z,61.56
2017-05-28T18:42:43.934Z,61.53
2017-05-28T18:43:52.842Z,61.46
2017-05-28T18:45:02.719Z,61.72
2017-05-28T18:46:11.622Z,62.3
2017-05-28T18:47:20.532Z,62.11
2017-05-28T18:48:29.595Z,62.11
2017-05-28T18:49:38.820Z,62.79
2017-05-28T18:50:48.044Z,62.79
2017-05-28T18:51:57.264Z,62.27
2017-05-28T18:53:06.814Z,62.69
2017-05-28T18:54:16.417Z,63.24
2017-05-28T18:55:25.644Z,62.85
2017-05-28T18:56:34.551Z,63.24
2017-05-28T18:57:44.109Z,63.63
2017-05-28T18:58:53.657Z,63.98
2017-05-28T19:00:03.034Z,64.21
2017-05-28T19:01:11.937Z,64.18
2017-05-28T19:02:21.160Z,64.01
2017-05-28T19:03:30.387Z,64.27
2017-05-28T19:04:39.614Z,65.72
2017-05-28T19:05:49.364Z,65.14
2017-05-28T19:06:58.276Z,65.43
2017-05-28T19:08:07.173Z,64.66
2017-05-28T19:09:16.411Z,64.56
2017-05-28T19:10:25.643Z,65.05
2017-05-28T19:11:35.115Z,64.53
2017-05-28T19:12:44.342Z,64.27
2017-05-28T19:13:53.593Z,63.69
2017-05-28T19:15:02.822Z,64.08
2017-05-28T19:16:11.722Z,64.08
2017-05-28T19:17:20.978Z,64.85
2017-05-28T19:18:30.201Z,65.78
2017-05-28T19:19:39.097Z,66.08
2017-05-28T19:20:48.975Z,65.98
2017-05-28T19:21:57.875Z,66.17
2017-05-28T19:23:07.481Z,66.36
2017-05-28T19:24:16.701Z,66.53
2017-05-28T19:25:26.251Z,66.24
2017-05-28T19:26:35.471Z,67.01
2017-05-28T19:27:44.375Z,67.2
2017-05-28T19:28:53.425Z,67.2
2017-05-28T19:30:03.299Z,66.82
2017-05-28T19:31:12.200Z,67.01
2017-05-28T19:32:21.104Z,67.46
2017-05-28T19:33:30.327Z,67.75
2017-05-28T19:34:39.394Z,67.65
2017-05-28T19:35:49.268Z,68.23
2017-05-28T19:36:58.169Z,66.97
2017-05-28T19:38:07.076Z,67.85
2017-05-28T19:39:16.304Z,68.23
2017-05-28T19:40:25.952Z,67.91
2017-05-28T19:41:34.850Z,68.59
2017-05-28T19:42:44.756Z,67.71
2017-05-28T19:43:53.981Z,68.39
2017-05-28T19:45:03.210Z,68.77
2017-05-28T19:46:12.538Z,69.35
2017-05-28T19:47:21.762Z,69.42
2017-05-28T19:48:30.660Z,69.42
2017-05-28T19:49:39.564Z,69.42
2017-05-28T19:50:49.112Z,70.09
2017-05-28T19:51:58.117Z,70.38
2017-05-28T19:53:07.664Z,70.67
2017-05-28T19:54:16.889Z,70.67
2017-05-28T19:55:25.789Z,70.64
2017-05-28T19:56:34.684Z,71.34
2017-05-28T19:57:43.964Z,70.35
2017-05-28T19:58:53.509Z,70.48
2017-05-28T20:00:03.062Z,71.22
2017-05-28T20:01:12.337Z,70.92
2017-05-28T20:02:21.234Z,71.5
2017-05-28T20:03:30.887Z,71.7
2017-05-28T20:04:40.113Z,71.89
2017-05-28T20:05:49.660Z,72.47
2017-05-28T20:06:58.560Z,72.14
2017-05-28T20:08:07.464Z,72.14
2017-05-28T20:09:16.607Z,71.66
2017-05-28T20:10:25.508Z,72.14
2017-05-28T20:11:34.404Z,72.53
2017-05-28T20:12:43.304Z,73.01
2017-05-28T20:13:52.857Z,73.39
2017-05-28T20:15:02.135Z,73.49
2017-05-28T20:16:11.031Z,73.68
2017-05-28T20:17:19.931Z,74.07
2017-05-28T20:18:29.167Z,74.03
2017-05-28T20:19:38.061Z,74.16
2017-05-28T20:20:47.436Z,74.55
2017-05-28T20:21:56.656Z,74.71
2017-05-28T20:23:05.556Z,74.22
2017-05-28T20:24:14.459Z,74.51
2017-05-28T20:25:23.354Z,75.09
2017-05-28T20:26:32.730Z,75.28
2017-05-28T20:27:41.629Z,75.19
2017-05-28T20:28:51.174Z,74.99
2017-05-28T20:30:00.073Z,74.13
2017-05-28T20:31:08.974Z,74.22
2017-05-28T20:32:18.676Z,75.19
2017-05-28T20:33:27.570Z,75.09
2017-05-28T20:34:36.465Z,75.57
2017-05-28T20:35:45.688Z,74.71
2017-05-28T20:36:54.601Z,75.57
2017-05-28T20:38:03.650Z,75.73
2017-05-28T20:39:12.545Z,76.11
2017-05-28T20:40:22.093Z,75.05
2017-05-28T20:41:31.311Z,74.41
2017-05-28T20:42:40.538Z,74.61
2017-05-28T20:43:50.719Z,75.63
2017-05-28T20:45:00.593Z,75.73
2017-05-28T20:46:09.497Z,75.92
2017-05-28T20:47:18.715Z,76.26
2017-05-28T20:48:27.624Z,76.69
2017-05-28T20:49:37.005Z,75.59
2017-05-28T20:50:46.550Z,75.82
2017-05-28T20:51:55.445Z,75.82
2017-05-28T20:53:04.341Z,76.59
2017-05-28T20:54:13.241Z,76.88
2017-05-28T20:55:22.664Z,76.56
2017-05-28T20:56:31.614Z,76.26
2017-05-28T20:57:40.514Z,77.04
2017-05-28T20:58:49.789Z,77.13
2017-05-28T20:59:59.352Z,77.33
2017-05-28T21:01:08.883Z,77.51
2017-05-28T21:02:17.779Z,78.38
2017-05-28T21:03:27.000Z,78
2017-05-28T21:04:35.907Z,77.51
2017-05-28T21:05:45.129Z,78
2017-05-28T21:06:54.271Z,78.28
2017-05-28T21:08:03.170Z,78.28
2017-05-28T21:09:12.717Z,78.19
2017-05-28T21:10:21.616Z,78.92
2017-05-28T21:11:30.513Z,78.34
2017-05-28T21:12:39.782Z,79.3
2017-05-28T21:13:49.005Z,79.11
2017-05-28T21:14:58.556Z,78.83
2017-05-28T21:16:07.457Z,78.73
2017-05-28T21:17:16.355Z,79.11
2017-05-28T21:18:25.408Z,78.44
2017-05-28T21:19:34.956Z,79.11
2017-05-28T21:20:43.852Z,77.67
2017-05-28T21:21:53.131Z,78.53
2017-05-28T21:23:02.027Z,79.11
2017-05-28T21:24:11.571Z,79.11
2017-05-28T21:25:21.126Z,79.3
2017-05-28T21:26:30.349Z,79.36
2017-05-28T21:27:39.575Z,79.17
2017-05-28T21:28:49.471Z,79.65
2017-05-28T21:29:58.415Z,80.04
2017-05-28T21:31:07.308Z,79.94
2017-05-28T21:32:16.211Z,79.94
2017-05-28T21:33:25.429Z,80.61
2017-05-28T21:34:35.325Z,80.71
2017-05-28T21:35:44.273Z,80.61
2017-05-28T21:36:53.491Z,81.38
2017-05-28T21:38:02.713Z,82.01
2017-05-28T21:39:12.266Z,82.01
2017-05-28T21:40:21.483Z,82.01
2017-05-28T21:41:30.853Z,81.72
2017-05-28T21:42:40.069Z,81.92
2017-05-28T21:43:49.610Z,82.01
2017-05-28T21:44:58.517Z,82.05
2017-05-28T21:46:07.414Z,82.87
2017-05-28T21:47:16.454Z,83.07
2017-05-28T21:48:26.004Z,83.16
2017-05-28T21:49:35.230Z,82.1
2017-05-28T21:50:44.779Z,82.68
2017-05-28T21:51:53.673Z,82.78
2017-05-28T21:53:02.731Z,82.68
2017-05-28T21:54:12.603Z,82.78
2017-05-28T21:55:21.827Z,83.64
2017-05-28T21:56:30.720Z,83.54
2017-05-28T21:57:39.612Z,84.03
2017-05-28T21:58:49.368Z,84.41
2017-05-28T21:59:58.911Z,84.6
2017-05-28T22:01:07.804Z,84.7
2017-05-28T22:02:16.699Z,84.66
2017-05-28T22:03:25.913Z,82.16
2017-05-28T22:04:35.530Z,81.15
2017-05-28T22:05:44.762Z,82.4
2017-05-28T22:06:53.657Z,83.45
2017-05-28T22:08:02.548Z,83.54
2017-05-28T22:09:12.423Z,83.16
2017-05-28T22:10:22.020Z,83.36
2017-05-28T22:11:31.248Z,83.84
2017-05-28T22:12:40.469Z,84.12
2017-05-28T22:13:49.363Z,84.22
2017-05-28T22:14:58.588Z,84.75
2017-05-28T22:16:07.538Z,84.95
2017-05-28T22:17:16.809Z,84.95
2017-05-28T22:18:26.027Z,85.24
2017-05-28T22:19:35.573Z,85.24
2017-05-28T22:20:45.122Z,85.62
2017-05-28T22:21:54.389Z,85.71
2017-05-28T22:23:03.281Z,85.81
2017-05-28T22:24:12.824Z,85.62
2017-05-28T22:25:22.054Z,85.62
2017-05-28T22:26:30.954Z,86.19
2017-05-28T22:27:39.947Z,85.81
2017-05-28T22:28:49.172Z,86.68
2017-05-28T22:29:58.064Z,86.25
2017-05-28T22:31:07.281Z,86.34
2017-05-28T22:32:16.177Z,86.63
2017-05-28T22:33:25.378Z,86.54
2017-05-28T22:34:34.594Z,86.54
2017-05-28T22:35:43.818Z,87.05
2017-05-28T22:36:52.714Z,87.21
2017-05-28T22:38:02.252Z,87.59
2017-05-28T22:39:12.372Z,87.49
2017-05-28T22:40:21.608Z,87.49
2017-05-28T22:41:30.503Z,87.49
2017-05-28T22:42:39.401Z,87.49
2017-05-28T22:43:49.277Z,87.59
2017-05-28T22:44:58.550Z,88.26
2017-05-28T22:46:07.444Z,87.4
2017-05-28T22:47:16.336Z,87.98
2017-05-28T22:48:25.938Z,87.59
2017-05-28T22:49:35.166Z,88.07
2017-05-28T22:50:44.211Z,87.88
2017-05-28T22:51:53.101Z,88.45
2017-05-28T22:53:02.646Z,88.17
2017-05-28T22:54:11.548Z,88.93
2017-05-28T22:55:20.448Z,89.03
2017-05-28T22:56:29.341Z,88.65
2017-05-28T22:57:38.560Z,88.93
2017-05-28T22:58:47.779Z,87.88
2017-05-28T22:59:56.999Z,88.45
2017-05-28T23:01:06.541Z,88.65
2017-05-28T23:02:15.765Z,88.65
2017-05-28T23:03:24.667Z,88.55
2017-05-28T23:04:33.555Z,89.27
2017-05-28T23:05:42.450Z,88.79
2017-05-28T23:06:51.988Z,89.56
2017-05-28T23:08:01.191Z,89.85
2017-05-28T23:09:10.081Z,90.04
2017-05-28T23:10:19.304Z,89.56
2017-05-28T23:11:28.525Z,89.65
2017-05-28T23:12:37.419Z,90.04
2017-05-28T23:13:47.065Z,89.75
2017-05-28T23:14:55.961Z,89.94
2017-05-28T23:16:05.179Z,89.94
2017-05-28T23:17:14.070Z,89.85
2017-05-28T23:18:23.357Z,89.85
2017-05-28T23:19:33.000Z,89.47
2017-05-28T23:20:41.893Z,89.94
2017-05-28T23:21:50.785Z,90.23
2017-05-28T23:22:59.680Z,90.33
2017-05-28T23:24:08.575Z,90.61
2017-05-28T23:25:17.946Z,90.14
2017-05-28T23:26:27.168Z,90.76
2017-05-28T23:27:36.062Z,90.52
2017-05-28T23:28:45.607Z,90.81
2017-05-28T23:29:54.823Z,90.61
2017-05-28T23:31:03.762Z,91.96
2017-05-28T23:32:12.654Z,91.77
2017-05-28T23:33:21.553Z,91.72
2017-05-28T23:34:30.765Z,91.72
2017-05-28T23:35:39.992Z,91.91
2017-05-28T23:36:49.183Z,92.01
2017-05-28T23:37:58.108Z,91.82
2017-05-28T23:39:07.327Z,92.2
2017-05-28T23:40:16.547Z,92.77
2017-05-28T23:41:25.773Z,92.3
2017-05-28T23:42:35.298Z,92.68
2017-05-28T23:43:44.849Z,93.26
2017-05-28T23:44:53.749Z,93.16
2017-05-28T23:46:03.297Z,92.77
2017-05-28T23:47:12.520Z,93.16
2017-05-28T23:48:22.212Z,93.16
2017-05-28T23:49:31.773Z,93.35
2017-05-28T23:50:40.672Z,93.44
2017-05-28T23:51:49.888Z,93.54
2017-05-28T23:52:58.782Z,92.87
2017-05-28T23:54:08.153Z,92.87
2017-05-28T23:55:18.025Z,93.54
2017-05-28T23:56:27.570Z,93.54
2017-05-28T23:57:36.460Z,93.54
2017-05-28T23:58:46.070Z,93.44
2017-05-28T23:59:55.915Z,93.54
